Time;durP1;ratioP1;P1;durP2;ratioP2;P2;SDS_P1;SDS_P2;PMS_P1;PMS_P2;Temp;Humidity;BMP_temperature;BMP_pressure;BME280_temperature;BME280_humidity;BME280_pressure;Samples;Min_cycle;Max_cycle;Signal;HPM_P1;HPM_P2
2022/01/28 00:04:50;;;;;;;11.73;6.47;;;4.50;92.70;;;;;;5093828;28;20209;-71
2022/01/28 00:07:16;;;;;;;13.10;6.53;;;4.50;92.70;;;;;;5092702;28;20195;-74
2022/01/28 00:09:41;;;;;;;12.50;6.53;;;4.60;92.70;;;;;;5100386;28;20424;-71
2022/01/28 00:12:08;;;;;;;9.40;5.67;;;4.50;92.60;;;;;;5104166;28;20421;-71
2022/01/28 00:37:01;;;;;;;10.90;5.77;;;4.60;92.20;;;;;;5091910;28;20481;-72
2022/01/28 00:39:26;;;;;;;10.63;6.10;;;4.60;92.20;;;;;;5087378;28;20481;-72
2022/01/28 00:41:52;;;;;;;12.27;5.90;;;4.60;92.10;;;;;;5092333;28;20414;-73
2022/01/28 00:44:18;;;;;;;12.33;5.30;;;4.70;92.00;;;;;;5090876;28;20457;-71
2022/01/28 00:46:44;;;;;;;12.50;6.47;;;4.70;92.00;;;;;;5091854;28;20227;-74
2022/01/28 00:49:10;;;;;;;11.87;5.87;;;4.70;91.80;;;;;;5092550;28;20965;-72
2022/01/28 00:51:35;;;;;;;10.00;4.80;;;4.70;91.80;;;;;;5091061;28;20179;-72
2022/01/28 00:54:01;;;;;;;9.47;5.47;;;4.70;91.50;;;;;;5090594;28;20947;-74
2022/01/28 00:56:27;;;;;;;12.00;5.23;;;4.60;91.60;;;;;;5091586;28;20232;-74
2022/01/28 00:58:52;;;;;;;10.73;5.27;;;4.70;91.50;;;;;;5092456;28;20704;-72
2022/01/28 01:01:18;;;;;;;9.77;5.13;;;4.70;91.50;;;;;;5092079;28;20186;-73
2022/01/28 01:03:44;;;;;;;8.43;4.80;;;4.70;91.50;;;;;;5092183;28;20221;-73
2022/01/28 01:06:10;;;;;;;9.77;5.80;;;4.70;91.30;;;;;;5092040;28;20239;-74
2022/01/28 01:08:36;;;;;;;10.73;5.37;;;4.80;91.30;;;;;;5088187;28;20783;-75
2022/01/28 01:11:03;;;;;;;11.73;6.10;;;4.80;91.10;;;;;;5091649;28;20212;-73
2022/01/28 01:13:29;;;;;;;13.37;6.33;;;4.70;90.80;;;;;;5091593;28;20802;-73
2022/01/28 01:15:55;;;;;;;9.83;5.27;;;4.70;90.80;;;;;;5091221;28;20425;-71
2022/01/28 01:21:12;;;;;;;12.30;5.57;;;4.60;91.10;;;;;;5080529;28;20437;-72
2022/01/28 01:23:47;;;;;;;10.67;5.20;;;4.60;91.10;;;;;;5091435;28;20473;-73
2022/01/28 01:26:14;;;;;;;10.40;5.07;;;4.60;91.00;;;;;;5087524;28;20876;-73
2022/01/28 01:28:42;;;;;;;10.40;5.97;;;4.60;91.10;;;;;;5091440;28;20437;-72
2022/01/28 01:31:15;;;;;;;11.40;6.10;;;4.50;91.10;;;;;;5092577;28;20451;-72
2022/01/28 01:33:51;;;;;;;9.30;5.60;;;4.50;91.00;;;;;;5092216;28;20187;-72
2022/01/28 01:36:17;;;;;;;11.80;5.90;;;4.40;91.10;;;;;;5091004;28;20409;-70
2022/01/28 01:38:44;;;;;;;9.63;5.60;;;4.40;91.30;;;;;;5091572;28;20847;-72
2022/01/28 01:41:18;;;;;;;10.65;5.32;;;4.30;91.20;;;;;;5092390;28;20183;-70
2022/01/28 01:43:58;;;;;;;11.80;5.47;;;4.30;91.30;;;;;;5091889;28;20575;-70
2022/01/28 01:52:06;;;;;;;12.27;6.70;;;4.20;91.40;;;;;;5086815;28;20413;-71
2022/01/28 01:54:40;;;;;;;9.77;5.50;;;4.10;91.40;;;;;;5091921;28;20505;-72
2022/01/28 01:57:09;;;;;;;9.60;5.63;;;4.10;91.60;;;;;;5088470;28;20579;-72
2022/01/28 01:59:37;;;;;;;10.13;4.65;;;4.10;91.70;;;;;;5091831;28;20183;-72
2022/01/28 02:02:03;;;;;;;10.55;5.28;;;4.10;91.40;;;;;;5091735;28;20175;-72
2022/01/28 02:04:28;;;;;;;12.00;5.47;;;4.10;91.40;;;;;;5096672;28;20175;-72
2022/01/28 02:06:56;;;;;;;13.70;6.70;;;4.10;91.50;;;;;;5105186;28;20859;-71
2022/01/28 02:09:22;;;;;;;12.55;6.45;;;4.10;91.50;;;;;;5092736;28;20258;-71
2022/01/28 02:11:47;;;;;;;10.57;5.50;;;4.10;91.40;;;;;;5089995;28;20230;-71
2022/01/28 02:14:14;;;;;;;11.13;5.70;;;4.00;91.50;;;;;;5092652;28;20225;-72
2022/01/28 02:16:39;;;;;;;10.40;4.60;;;4.00;91.60;;;;;;5089428;28;20179;-71
2022/01/28 02:19:06;;;;;;;10.80;5.80;;;4.00;91.60;;;;;;5092987;28;20723;-71
2022/01/28 02:21:45;;;;;;;10.37;5.80;;;4.00;91.80;;;;;;5091639;28;20183;-72
2022/01/28 02:24:13;;;;;;;13.60;5.60;;;4.00;91.70;;;;;;5091928;28;20508;-71
2022/01/28 02:26:40;;;;;;;10.82;5.43;;;3.90;91.70;;;;;;5092435;28;20418;-71
2022/01/28 02:29:25;;;;;;;11.87;5.00;;;3.90;91.80;;;;;;5092215;28;20195;-70
2022/01/28 02:31:51;;;;;;;8.90;4.90;;;3.90;91.90;;;;;;5093109;28;20405;-70
2022/01/28 02:34:17;;;;;;;8.73;4.93;;;3.80;92.00;;;;;;5093126;28;20413;-73
2022/01/28 02:36:43;;;;;;;10.93;5.23;;;3.90;92.10;;;;;;5092951;28;20433;-70
2022/01/28 02:39:11;;;;;;;10.53;4.90;;;3.90;92.10;;;;;;5093329;28;20199;-71
2022/01/28 02:41:41;;;;;;;10.02;5.38;;;3.90;92.00;;;;;;5094712;28;20466;-72
2022/01/28 02:46:52;;;;;;;7.63;4.43;;;3.80;92.00;;;;;;5091839;28;20210;-71
2022/01/28 02:49:17;;;;;;;11.23;4.83;;;3.80;92.00;;;;;;5086192;28;20276;-72
2022/01/28 02:51:43;;;;;;;9.53;4.77;;;3.80;91.90;;;;;;5091721;28;20483;-71
2022/01/28 02:54:17;;;;;;;10.53;5.33;;;3.70;92.10;;;;;;5090521;28;20447;-71
2022/01/28 02:56:53;;;;;;;8.13;5.03;;;3.70;92.10;;;;;;5091728;28;20190;-71
2022/01/28 02:59:19;;;;;;;8.77;5.45;;;3.70;92.00;;;;;;5092018;28;20351;-71
2022/01/28 03:01:45;;;;;;;6.85;4.70;;;3.70;92.00;;;;;;5090261;28;20178;-70
2022/01/28 03:04:19;;;;;;;7.70;4.80;;;3.70;92.00;;;;;;5087402;28;20214;-71
2022/01/28 03:06:45;;;;;;;7.90;4.43;;;3.70;91.90;;;;;;5091205;28;20205;-70
2022/01/28 03:09:18;;;;;;;13.00;5.30;;;3.70;91.90;;;;;;5091717;28;20677;-72
2022/01/28 03:11:48;;;;;;;9.45;5.07;;;3.70;92.00;;;;;;5092002;28;20179;-71
2022/01/28 03:16:59;;;;;;;8.40;5.32;;;3.70;91.70;;;;;;5091195;28;20273;-70
2022/01/28 03:19:28;;;;;;;8.73;4.60;;;3.70;91.60;;;;;;5090170;28;20669;-71
2022/01/28 03:21:59;;;;;;;9.05;4.97;;;3.80;91.30;;;;;;5083705;28;20474;-72
2022/01/28 03:24:27;;;;;;;9.38;4.90;;;3.80;91.20;;;;;;5092522;28;20183;-72
2022/01/28 03:27:03;;;;;;;8.07;4.93;;;3.90;91.00;;;;;;5088661;28;20175;-71
2022/01/28 03:29:29;;;;;;;11.63;4.95;;;3.90;90.80;;;;;;5091561;28;20167;-71
2022/01/28 03:31:54;;;;;;;8.43;4.73;;;3.80;90.70;;;;;;5091389;28;20829;-71
2022/01/28 03:34:20;;;;;;;9.07;5.00;;;3.80;90.80;;;;;;5093595;28;20183;-72
2022/01/28 03:36:46;;;;;;;8.90;5.10;;;3.80;90.80;;;;;;5094685;28;20205;-71
2022/01/28 03:39:12;;;;;;;9.80;4.90;;;3.90;90.80;;;;;;5094381;28;20207;-71
2022/01/28 03:41:38;;;;;;;9.90;5.07;;;3.90;90.70;;;;;;5095480;28;20194;-71
2022/01/28 03:44:05;;;;;;;14.55;6.00;;;3.90;90.70;;;;;;5094622;28;20305;-72
2022/01/28 03:46:31;;;;;;;12.45;5.18;;;4.00;90.40;;;;;;5093934;28;20195;-71
2022/01/28 03:48:58;;;;;;;11.07;5.00;;;4.00;90.00;;;;;;5093742;28;20554;-71
2022/01/28 03:51:24;;;;;;;8.75;4.82;;;4.00;90.10;;;;;;5093380;28;20428;-71
2022/01/28 03:53:50;;;;;;;15.07;6.23;;;4.00;90.00;;;;;;5093453;28;20183;-71
2022/01/28 03:56:16;;;;;;;9.73;4.63;;;4.10;90.10;;;;;;5092766;28;20201;-73
2022/01/28 03:58:42;;;;;;;11.63;5.37;;;4.10;90.10;;;;;;5093137;28;20214;-70
2022/01/28 04:01:17;;;;;;;10.23;5.73;;;4.10;89.90;;;;;;5094550;28;20433;-71
2022/01/28 04:03:59;;;;;;;9.20;5.10;;;4.20;89.70;;;;;;5093465;28;20467;-72
2022/01/28 04:11:56;;;;;;;9.40;5.50;;;4.10;89.70;;;;;;5095451;28;20404;-71
2022/01/28 04:19:32;;;;;;;10.70;4.75;;;4.20;89.50;;;;;;5097297;28;20187;-72
2022/01/28 04:21:57;;;;;;;9.05;4.80;;;4.10;89.50;;;;;;5094780;28;20190;-72
2022/01/28 04:24:23;;;;;;;12.17;5.60;;;4.10;89.60;;;;;;5090598;28;20204;-73
2022/01/28 04:26:49;;;;;;;13.47;6.00;;;4.10;89.60;;;;;;5092084;28;20277;-72
2022/01/28 04:29:15;;;;;;;9.37;4.67;;;4.00;89.70;;;;;;5093725;28;20175;-72
2022/01/28 04:31:43;;;;;;;9.00;5.27;;;4.00;90.00;;;;;;5093707;28;20581;-72
2022/01/28 04:34:10;;;;;;;10.23;5.78;;;4.00;90.10;;;;;;5092915;28;20197;-72
2022/01/28 04:36:44;;;;;;;12.18;5.30;;;4.00;90.10;;;;;;5092715;28;20595;-72
2022/01/28 04:44:45;;;;;;;12.75;5.63;;;3.80;90.50;;;;;;5094604;28;20178;-72
2022/01/28 04:47:21;;;;;;;10.90;5.53;;;3.80;90.60;;;;;;5091724;28;20215;-70
2022/01/28 05:08:27;;;;;;;9.93;5.57;;;3.90;90.50;;;;;;5092309;28;20288;-71
2022/01/28 05:17:14;;;;;;;11.98;5.22;;;3.80;90.50;;;;;;5091904;28;20667;-69
2022/01/28 05:27:06;;;;;;;13.65;6.30;;;3.70;90.90;;;;;;5091822;28;20657;-71
2022/01/28 05:29:32;;;;;;;14.30;6.50;;;3.70;90.90;;;;;;5093428;28;20178;-70
2022/01/28 05:31:58;;;;;;;14.30;5.93;;;3.70;91.00;;;;;;5092038;28;20555;-71
2022/01/28 05:34:26;;;;;;;9.23;5.40;;;3.70;91.10;;;;;;5094153;28;20179;-69
2022/01/28 05:36:52;;;;;;;11.73;6.07;;;3.70;91.00;;;;;;5092150;28;20653;-70
2022/01/28 05:39:18;;;;;;;10.98;5.82;;;3.70;91.10;;;;;;5096388;28;21183;-70
2022/01/28 05:41:44;;;;;;;11.25;6.10;;;3.60;91.10;;;;;;5094598;28;20185;-71
2022/01/28 05:44:10;;;;;;;15.90;6.07;;;3.60;91.20;;;;;;5102580;28;20195;-70
2022/01/28 05:46:36;;;;;;;11.57;6.30;;;3.60;91.30;;;;;;5107891;28;20662;-70
2022/01/28 05:49:02;;;;;;;11.43;6.23;;;3.50;91.30;;;;;;5108171;28;20281;-71
2022/01/28 05:51:28;;;;;;;13.38;6.97;;;3.60;91.30;;;;;;5107582;28;20266;-69
2022/01/28 05:53:57;;;;;;;13.30;6.47;;;3.50;91.50;;;;;;5107564;28;20187;-71
2022/01/28 05:56:26;;;;;;;13.10;6.05;;;3.60;91.50;;;;;;5092262;28;20551;-69
2022/01/28 05:58:53;;;;;;;12.10;6.80;;;3.60;91.50;;;;;;5089645;28;20230;-69
2022/01/28 06:01:18;;;;;;;15.82;5.63;;;3.60;91.50;;;;;;5090818;28;20219;-69
2022/01/28 06:03:47;;;;;;;15.50;7.27;;;3.60;91.20;;;;;;5092694;28;20215;-70
2022/01/28 06:06:18;;;;;;;19.02;6.78;;;3.50;91.40;;;;;;5089887;28;20926;-70
2022/01/28 06:08:48;;;;;;;11.80;6.63;;;3.60;91.50;;;;;;5091882;28;20249;-70
2022/01/28 06:11:15;;;;;;;15.65;6.95;;;3.50;91.40;;;;;;5092118;28;20769;-70
2022/01/28 06:13:42;;;;;;;10.50;5.28;;;3.50;91.50;;;;;;5091410;28;20558;-70
2022/01/28 06:16:09;;;;;;;16.40;7.10;;;3.50;91.40;;;;;;5091729;28;20676;-70
2022/01/28 06:18:36;;;;;;;19.63;6.50;;;3.60;91.30;;;;;;5091722;28;20207;-70
2022/01/28 06:21:02;;;;;;;15.02;6.85;;;3.50;91.30;;;;;;5091318;28;20676;-70
2022/01/28 06:23:28;;;;;;;14.50;6.78;;;3.50;91.30;;;;;;5091296;28;20210;-68
2022/01/28 06:25:54;;;;;;;10.80;6.60;;;3.50;91.30;;;;;;5091126;28;20172;-70
2022/01/28 06:28:20;;;;;;;13.80;6.33;;;3.50;91.30;;;;;;5091410;28;20206;-69
2022/01/28 06:30:45;;;;;;;25.33;6.97;;;3.50;91.30;;;;;;5091811;28;20954;-69
2022/01/28 06:33:12;;;;;;;13.10;6.37;;;3.50;91.20;;;;;;5091323;28;20413;-69
2022/01/28 06:35:40;;;;;;;13.90;5.80;;;3.60;90.90;;;;;;5091387;28;20675;-69
2022/01/28 06:38:05;;;;;;;13.95;6.75;;;3.60;90.70;;;;;;5091817;28;20528;-69
2022/01/28 06:40:31;;;;;;;14.70;6.13;;;3.60;90.70;;;;;;5090027;28;20266;-70
2022/01/28 06:42:57;;;;;;;16.77;8.53;;;3.50;90.90;;;;;;5091157;28;20214;-70
2022/01/28 06:45:22;;;;;;;16.67;7.40;;;3.50;90.90;;;;;;5091054;28;20298;-70
2022/01/28 06:47:48;;;;;;;16.80;7.53;;;3.60;90.90;;;;;;5091482;28;20854;-69
2022/01/28 06:50:14;;;;;;;14.93;7.30;;;3.60;90.90;;;;;;5092077;28;20183;-69
2022/01/28 06:52:42;;;;;;;18.23;7.10;;;3.50;91.10;;;;;;5091367;28;20228;-69
2022/01/28 06:55:08;;;;;;;15.68;6.63;;;3.50;91.20;;;;;;5091104;28;20175;-70
2022/01/28 06:57:34;;;;;;;16.45;7.25;;;3.50;91.30;;;;;;5091076;28;20199;-70
2022/01/28 07:00:00;;;;;;;15.03;6.77;;;3.50;91.10;;;;;;5091502;28;20183;-69
2022/01/28 07:02:26;;;;;;;11.45;6.45;;;3.50;91.00;;;;;;5090070;28;20207;-68
2022/01/28 07:04:52;;;;;;;14.38;6.60;;;3.50;91.00;;;;;;5090619;28;20653;-70
2022/01/28 07:07:20;;;;;;;18.73;7.37;;;3.40;91.10;;;;;;5091530;28;20207;-69
2022/01/28 07:09:48;;;;;;;15.70;7.45;;;3.40;91.30;;;;;;5100102;28;21697;-69
2022/01/28 07:12:14;;;;;;;15.85;6.80;;;3.40;91.30;;;;;;5104786;28;20668;-69
2022/01/28 07:14:40;;;;;;;13.00;6.47;;;3.40;91.40;;;;;;5100691;27;20206;-70
2022/01/28 07:17:05;;;;;;;14.80;7.00;;;3.40;91.40;;;;;;5103555;28;20229;-70
2022/01/28 07:19:31;;;;;;;12.93;6.57;;;3.40;91.40;;;;;;5102299;28;20183;-69
2022/01/28 07:21:58;;;;;;;19.03;7.10;;;3.30;91.30;;;;;;5098482;28;20254;-69
2022/01/28 07:24:24;;;;;;;15.32;7.68;;;3.40;91.10;;;;;;5098146;28;20206;-70
2022/01/28 07:26:49;;;;;;;15.80;7.20;;;3.40;91.00;;;;;;5098375;28;20282;-70
2022/01/28 07:29:15;;;;;;;16.33;6.80;;;3.40;90.80;;;;;;5098495;28;20413;-68
2022/01/28 07:31:42;;;;;;;14.57;6.37;;;3.50;90.30;;;;;;5098353;28;20300;-69
2022/01/28 07:34:08;;;;;;;14.45;6.18;;;3.50;89.90;;;;;;5098332;28;20748;-69
2022/01/28 07:36:34;;;;;;;13.13;6.80;;;3.50;90.00;;;;;;5097999;28;20203;-69
2022/01/28 07:39:00;;;;;;;15.75;7.32;;;3.50;90.30;;;;;;5098966;28;20443;-69
2022/01/28 07:41:27;;;;;;;12.32;6.28;;;3.50;90.70;;;;;;5098776;28;20214;-70
2022/01/28 07:43:53;;;;;;;12.77;7.97;;;3.50;90.80;;;;;;5097343;28;20206;-70
2022/01/28 07:46:19;;;;;;;17.48;7.10;;;3.50;90.60;;;;;;5095920;28;20203;-71
2022/01/28 07:48:45;;;;;;;16.43;7.57;;;3.60;90.50;;;;;;5098661;28;20198;-69
2022/01/28 07:51:10;;;;;;;15.53;6.40;;;3.70;90.70;;;;;;5098003;28;20456;-70
2022/01/28 07:53:37;;;;;;;13.90;7.90;;;3.70;90.40;;;;;;5095960;28;20333;-69
2022/01/28 07:56:03;;;;;;;13.30;6.77;;;3.70;90.30;;;;;;5097619;28;20218;-70
2022/01/28 07:58:29;;;;;;;22.73;8.03;;;3.80;90.40;;;;;;5096521;28;20206;-70
2022/01/28 08:00:55;;;;;;;14.50;6.90;;;3.80;90.40;;;;;;5096960;28;20420;-70
2022/01/28 08:03:20;;;;;;;15.43;7.93;;;3.80;90.50;;;;;;5097976;28;20206;-70
2022/01/28 08:05:46;;;;;;;20.60;7.90;;;3.80;90.60;;;;;;5101461;28;20669;-69
2022/01/28 08:08:13;;;;;;;13.37;7.27;;;3.80;90.70;;;;;;5105479;28;20196;-70
2022/01/28 08:10:39;;;;;;;14.88;6.93;;;3.90;90.50;;;;;;5103811;28;20171;-70
2022/01/28 08:13:05;;;;;;;14.37;7.03;;;4.00;90.40;;;;;;5101346;28;20185;-70
2022/01/28 08:15:33;;;;;;;11.13;5.63;;;4.00;90.10;;;;;;5103168;28;20436;-70
2022/01/28 08:17:59;;;;;;;13.47;6.93;;;4.00;89.50;;;;;;5100424;28;20527;-71
2022/01/28 08:20:25;;;;;;;17.07;6.40;;;4.00;89.50;;;;;;5095481;28;21116;-70
2022/01/28 08:22:57;;;;;;;20.77;8.77;;;4.00;88.70;;;;;;5094064;28;20476;-70
2022/01/28 08:25:24;;;;;;;19.33;7.18;;;4.10;89.00;;;;;;5093935;28;20175;-71
2022/01/28 08:27:51;;;;;;;14.87;6.40;;;4.20;89.00;;;;;;5093931;28;20210;-71
2022/01/28 08:30:20;;;;;;;13.20;5.93;;;4.20;88.30;;;;;;5094512;28;20452;-71
2022/01/28 08:32:47;;;;;;;8.80;5.28;;;4.20;87.80;;;;;;5092692;28;20420;-71
2022/01/28 08:35:14;;;;;;;15.40;7.00;;;4.30;87.10;;;;;;5093466;28;20187;-71
2022/01/28 08:37:40;;;;;;;14.33;6.33;;;4.40;86.80;;;;;;5093743;28;20441;-71
2022/01/28 08:40:09;;;;;;;17.47;7.07;;;4.30;86.90;;;;;;5093464;28;20420;-70
2022/01/28 08:42:35;;;;;;;15.43;6.72;;;4.40;87.00;;;;;;5092931;28;20460;-72
2022/01/28 08:45:01;;;;;;;17.30;6.15;;;4.50;87.10;;;;;;5093461;28;20218;-70
2022/01/28 08:47:27;;;;;;;14.37;5.50;;;4.50;86.80;;;;;;5092096;28;20578;-71
2022/01/28 08:49:53;;;;;;;10.73;6.17;;;4.50;86.30;;;;;;5093404;28;20429;-72
2022/01/28 08:52:18;;;;;;;9.03;5.40;;;4.70;85.90;;;;;;5093101;28;20414;-70
2022/01/28 08:54:46;;;;;;;12.83;5.60;;;4.70;85.00;;;;;;5093156;28;20183;-71
2022/01/28 08:57:12;;;;;;;14.13;5.72;;;4.70;85.20;;;;;;5092958;28;20207;-69
2022/01/28 08:59:42;;;;;;;11.37;5.70;;;4.70;85.20;;;;;;5093175;28;20179;-70
2022/01/28 09:02:09;;;;;;;15.93;6.00;;;4.80;85.00;;;;;;5092669;28;20425;-70
2022/01/28 09:04:34;;;;;;;11.68;4.85;;;4.80;84.60;;;;;;5095983;28;20238;-69
2022/01/28 09:07:00;;;;;;;10.10;5.60;;;4.80;84.60;;;;;;5091359;28;20650;-70
2022/01/28 09:09:28;;;;;;;9.70;4.80;;;4.90;84.00;;;;;;5093235;28;20417;-70
2022/01/28 09:12:40;;;;;;;10.52;5.40;;;4.90;83.40;;;;;;5091487;28;20520;-71
2022/01/28 09:14:39;;;;;;;13.57;5.22;;;4.90;83.30;;;;;;5081507;28;20297;-71
2022/01/28 09:17:05;;;;;;;14.13;5.43;;;4.90;83.10;;;;;;5093111;28;20199;-69
2022/01/28 09:19:31;;;;;;;11.05;4.90;;;5.00;83.10;;;;;;5091697;28;20191;-68
2022/01/28 09:21:57;;;;;;;9.80;5.63;;;5.10;82.40;;;;;;5092596;28;20171;-74
2022/01/28 09:24:23;;;;;;;11.30;5.80;;;5.10;81.90;;;;;;5092789;28;20700;-71
2022/01/28 09:26:48;;;;;;;10.00;5.33;;;5.30;81.90;;;;;;5092531;28;20174;-71
2022/01/28 09:29:14;;;;;;;11.37;5.10;;;5.30;81.40;;;;;;5091378;28;20195;-70
2022/01/28 09:31:40;;;;;;;8.80;4.90;;;5.20;81.50;;;;;;5092261;28;20214;-71
2022/01/28 09:34:06;;;;;;;7.03;4.47;;;5.30;81.10;;;;;;5092391;28;20179;-70
2022/01/28 09:36:31;;;;;;;17.13;7.10;;;5.40;80.90;;;;;;5092207;28;20183;-71
2022/01/28 09:38:57;;;;;;;10.70;5.17;;;5.40;80.60;;;;;;5092390;28;20203;-70
2022/01/28 09:41:23;;;;;;;10.33;4.53;;;5.50;80.20;;;;;;5091877;28;20236;-69
2022/01/28 09:43:49;;;;;;;7.13;3.73;;;5.60;79.60;;;;;;5090769;28;20203;-70
2022/01/28 09:46:15;;;;;;;10.53;4.20;;;5.70;79.30;;;;;;5092006;28;20469;-72
2022/01/28 09:48:41;;;;;;;15.73;4.27;;;5.80;78.40;;;;;;5090599;28;20448;-71
2022/01/28 09:51:07;;;;;;;7.93;4.27;;;5.80;76.80;;;;;;5092355;28;20413;-71
2022/01/28 09:53:33;;;;;;;7.90;3.60;;;5.90;77.10;;;;;;5092115;28;20171;-71
2022/01/28 09:55:59;;;;;;;8.90;3.57;;;5.90;76.50;;;;;;5090946;28;20417;-71
2022/01/28 09:58:25;;;;;;;7.43;3.40;;;6.00;76.10;;;;;;5092208;28;20444;-70
2022/01/28 10:00:51;;;;;;;8.00;3.60;;;6.10;75.80;;;;;;5092098;28;20641;-69
2022/01/28 10:03:18;;;;;;;12.80;3.37;;;6.10;75.10;;;;;;5091803;28;20456;-71
2022/01/28 10:05:50;;;;;;;7.77;2.90;;;6.30;74.50;;;;;;5091815;28;20417;-70
2022/01/28 10:08:17;;;;;;;5.60;3.30;;;6.30;73.60;;;;;;5092555;28;20498;-71
2022/01/28 10:11:08;;;;;;;11.40;2.90;;;6.30;73.70;;;;;;5092266;28;20421;-71
2022/01/28 10:13:53;;;;;;;9.80;3.40;;;6.40;73.50;;;;;;5089680;28;20421;-69
2022/01/28 10:16:30;;;;;;;8.17;3.20;;;6.50;73.20;;;;;;5091999;28;20413;-71
2022/01/28 10:18:58;;;;;;;5.53;2.47;;;6.50;72.70;;;;;;5085467;28;20955;-71
2022/01/28 10:21:28;;;;;;;8.37;3.10;;;6.50;72.40;;;;;;5091350;28;20508;-71
2022/01/28 10:24:02;;;;;;;8.13;2.90;;;6.40;72.40;;;;;;5085817;28;20490;-72
2022/01/28 10:26:29;;;;;;;7.80;2.90;;;6.40;72.90;;;;;;5090482;28;20421;-72
2022/01/28 10:28:55;;;;;;;10.90;3.00;;;6.60;72.70;;;;;;5087230;28;20845;-71
2022/01/28 10:31:21;;;;;;;9.77;3.00;;;6.50;72.70;;;;;;5091528;28;20467;-72
2022/01/28 10:33:47;;;;;;;4.33;2.43;;;6.60;72.40;;;;;;5092041;28;20187;-70
2022/01/28 10:36:24;;;;;;;6.13;2.83;;;6.60;72.10;;;;;;5091535;28;20209;-72
2022/01/28 10:38:56;;;;;;;4.77;2.43;;;6.50;72.70;;;;;;5091322;28;20268;-70
2022/01/28 10:41:25;;;;;;;5.83;2.60;;;6.40;72.90;;;;;;5091219;28;20436;-70
2022/01/28 10:43:53;;;;;;;5.00;2.50;;;6.30;73.00;;;;;;5090568;28;20464;-72
2022/01/28 10:46:30;;;;;;;9.80;3.13;;;6.30;72.90;;;;;;5091079;28;20803;-70
2022/01/28 10:48:58;;;;;;;8.10;3.03;;;6.70;72.60;;;;;;5091241;28;20474;-69
2022/01/28 10:51:41;;;;;;;5.73;2.40;;;7.00;71.40;;;;;;5091019;28;20417;-72
2022/01/28 10:54:09;;;;;;;6.60;2.50;;;7.10;70.20;;;;;;5085521;28;20413;-70
2022/01/28 10:56:49;;;;;;;6.80;3.13;;;7.20;69.80;;;;;;5091685;28;20421;-69
2022/01/28 10:59:18;;;;;;;13.43;3.77;;;7.00;69.70;;;;;;5091645;28;20532;-70
2022/01/28 11:01:44;;;;;;;6.50;2.73;;;6.80;69.80;;;;;;5091401;28;20543;-71
2022/01/28 11:04:12;;;;;;;9.47;2.70;;;6.90;70.50;;;;;;5091671;28;20468;-72
2022/01/28 11:06:39;;;;;;;5.03;2.40;;;7.00;70.20;;;;;;5092073;28;20413;-71
2022/01/28 11:09:09;;;;;;;6.90;2.40;;;7.00;69.80;;;;;;5092563;28;20440;-69
2022/01/28 11:11:36;;;;;;;4.50;2.30;;;7.00;69.20;;;;;;5087955;28;20406;-71
2022/01/28 11:14:02;;;;;;;11.30;2.60;;;6.90;69.20;;;;;;5091757;28;20440;-71
2022/01/28 11:16:28;;;;;;;6.23;2.70;;;6.80;69.10;;;;;;5091043;28;20417;-70
2022/01/28 11:18:55;;;;;;;3.90;2.07;;;6.90;69.20;;;;;;5091578;28;20444;-70
2022/01/28 11:21:37;;;;;;;7.70;2.87;;;6.80;69.20;;;;;;5092009;28;20182;-72
2022/01/28 11:24:23;;;;;;;5.67;2.33;;;6.70;69.10;;;;;;5088491;28;20543;-71
2022/01/28 11:27:04;;;;;;;8.00;3.07;;;6.60;69.50;;;;;;5060386;28;20448;-69
2022/01/28 11:29:30;;;;;;;10.90;3.20;;;6.70;69.80;;;;;;5089396;28;20406;-72
2022/01/28 11:31:58;;;;;;;6.13;3.03;;;6.70;68.90;;;;;;5091248;28;20412;-70
2022/01/28 11:34:24;;;;;;;6.70;3.37;;;6.80;68.90;;;;;;5090342;28;20230;-71
2022/01/28 11:36:51;;;;;;;5.30;2.30;;;6.90;68.50;;;;;;5091223;28;20421;-71
2022/01/28 11:39:37;;;;;;;4.33;2.60;;;6.90;68.50;;;;;;5091912;28;20186;-71
2022/01/28 11:42:10;;;;;;;10.70;3.17;;;6.90;68.60;;;;;;5087248;28;20458;-72
2022/01/28 11:44:49;;;;;;;10.30;2.70;;;6.90;68.30;;;;;;5091114;28;20468;-69
2022/01/28 11:47:30;;;;;;;5.17;2.07;;;6.90;68.30;;;;;;5086083;28;20420;-70
2022/01/28 11:50:02;;;;;;;9.70;3.30;;;6.90;66.70;;;;;;5086692;28;20398;-71
2022/01/28 11:52:34;;;;;;;6.00;2.67;;;6.90;66.60;;;;;;5090830;28;20895;-71
2022/01/28 11:55:16;;;;;;;6.33;2.50;;;7.00;66.60;;;;;;5091764;28;20508;-70
2022/01/28 11:57:59;;;;;;;5.07;2.40;;;7.10;66.10;;;;;;5094441;28;20445;-69
2022/01/28 12:00:30;;;;;;;4.43;2.43;;;6.80;66.70;;;;;;5090773;28;20413;-69
2022/01/28 12:02:56;;;;;;;3.87;2.17;;;6.80;67.70;;;;;;5090067;28;20449;-71
2022/01/28 12:05:31;;;;;;;5.73;2.57;;;6.80;68.60;;;;;;5093086;28;20429;-71
2022/01/28 12:07:59;;;;;;;6.60;2.57;;;6.70;69.40;;;;;;5102871;28;20437;-70
2022/01/28 12:10:26;;;;;;;6.80;2.50;;;6.60;69.40;;;;;;5109802;28;20417;-71
2022/01/28 12:15:27;;;;;;;6.93;2.60;;;6.60;69.70;;;;;;5094745;28;20431;-71
2022/01/28 12:18:10;;;;;;;7.13;2.67;;;6.60;69.20;;;;;;5092759;28;20437;-71
2022/01/28 12:20:48;;;;;;;6.83;3.17;;;6.50;69.70;;;;;;5094344;28;20453;-72
2022/01/28 12:23:14;;;;;;;10.50;3.30;;;6.50;69.80;;;;;;5093864;28;20463;-72
2022/01/28 12:25:40;;;;;;;5.27;2.60;;;6.50;69.80;;;;;;5092656;28;20429;-71
2022/01/28 12:28:23;;;;;;;6.40;2.87;;;6.40;69.70;;;;;;5094248;28;20199;-69
2022/01/28 12:31:08;;;;;;;4.90;2.53;;;6.40;70.50;;;;;;5094514;28;20180;-72
2022/01/28 12:33:38;;;;;;;6.80;3.73;;;6.40;70.10;;;;;;5093943;28;20417;-71
2022/01/28 12:36:09;;;;;;;6.40;3.20;;;6.60;70.10;;;;;;5093823;28;20502;-71
2022/01/28 12:38:41;;;;;;;8.50;3.87;;;6.70;69.90;;;;;;5093727;28;20947;-72
2022/01/28 12:41:09;;;;;;;11.50;3.27;;;6.80;69.80;;;;;;5094100;28;20429;-71
2022/01/28 12:43:38;;;;;;;7.03;3.27;;;6.80;69.40;;;;;;5092235;28;20460;-71
2022/01/28 12:46:07;;;;;;;6.87;3.20;;;6.90;70.20;;;;;;5093353;28;20433;-72
2022/01/28 12:48:33;;;;;;;7.10;3.20;;;6.90;69.80;;;;;;5093875;28;20441;-72
2022/01/28 12:51:01;;;;;;;6.60;3.50;;;6.90;69.20;;;;;;5093441;28;20824;-71
2022/01/28 12:53:39;;;;;;;8.70;3.37;;;6.80;69.70;;;;;;5091783;28;20433;-70
2022/01/28 12:56:07;;;;;;;9.87;3.87;;;6.70;69.90;;;;;;5085542;28;20417;-69
2022/01/28 12:58:45;;;;;;;7.73;3.57;;;6.60;71.40;;;;;;5093071;28;20498;-70
2022/01/28 13:01:13;;;;;;;16.80;4.10;;;6.50;72.30;;;;;;5092336;28;20436;-71
2022/01/28 13:04:02;;;;;;;8.87;4.27;;;6.40;72.40;;;;;;5093463;28;20643;-72
2022/01/28 13:09:00;;;;;;;12.60;4.47;;;6.40;73.60;;;;;;5093232;28;21031;-72
2022/01/28 13:11:27;;;;;;;13.93;5.60;;;6.40;73.90;;;;;;5092772;28;20421;-68
2022/01/28 13:13:57;;;;;;;9.57;4.00;;;6.30;74.50;;;;;;5085379;28;20431;-71
2022/01/28 13:16:38;;;;;;;9.97;4.43;;;6.50;74.50;;;;;;5092760;28;20429;-72
2022/01/28 13:19:06;;;;;;;11.10;4.43;;;6.70;73.50;;;;;;5087324;28;20447;-70
2022/01/28 13:21:33;;;;;;;6.50;3.90;;;6.90;72.70;;;;;;5092405;28;20464;-71
2022/01/28 13:24:20;;;;;;;10.00;4.43;;;7.10;72.60;;;;;;5092764;28;20545;-72
2022/01/28 13:27:01;;;;;;;9.67;3.93;;;7.10;71.30;;;;;;5092804;28;20779;-72
2022/01/28 13:29:29;;;;;;;9.10;5.10;;;6.90;72.00;;;;;;5089280;28;20804;-72
2022/01/28 13:31:57;;;;;;;12.80;5.70;;;6.90;73.00;;;;;;5087866;28;20424;-72
2022/01/28 13:34:23;;;;;;;13.83;6.03;;;6.60;75.10;;;;;;5087635;28;20433;-71
2022/01/28 13:36:50;;;;;;;11.17;5.20;;;6.40;75.80;;;;;;5092395;28;21002;-73
2022/01/28 13:39:21;;;;;;;9.47;5.53;;;6.50;76.20;;;;;;5092609;28;20531;-71
2022/01/28 13:41:51;;;;;;;9.67;5.27;;;6.50;75.80;;;;;;5091955;28;20417;-71
2022/01/28 13:44:27;;;;;;;13.60;5.10;;;6.40;74.80;;;;;;5092276;28;20464;-72
2022/01/28 13:47:02;;;;;;;17.60;8.00;;;6.30;75.10;;;;;;5091558;28;20441;-72
2022/01/28 13:49:39;;;;;;;11.20;6.10;;;6.30;75.70;;;;;;5092169;28;20446;-72
2022/01/28 13:52:17;;;;;;;11.83;5.70;;;6.50;75.50;;;;;;5090291;28;20437;-70
2022/01/28 13:54:44;;;;;;;12.57;5.90;;;6.40;74.80;;;;;;5090532;28;20465;-72
2022/01/28 13:57:10;;;;;;;11.40;6.20;;;6.50;75.10;;;;;;5091228;28;20554;-70
2022/01/28 13:59:39;;;;;;;10.13;5.80;;;6.50;74.30;;;;;;5091507;28;20417;-71
2022/01/28 14:02:15;;;;;;;9.30;5.23;;;6.50;74.60;;;;;;5090098;28;20425;-72
2022/01/28 14:04:46;;;;;;;10.57;5.70;;;6.40;74.20;;;;;;5092341;28;20468;-71
2022/01/28 14:07:14;;;;;;;10.80;5.50;;;6.30;75.10;;;;;;5092035;28;20440;-70
2022/01/28 14:09:58;;;;;;;13.23;6.53;;;6.20;74.90;;;;;;5091546;28;20439;-71
2022/01/28 14:12:34;;;;;;;23.50;6.93;;;6.30;75.20;;;;;;5090742;28;20773;-69
2022/01/28 14:15:11;;;;;;;13.67;6.60;;;6.20;74.80;;;;;;5084006;28;20460;-72
2022/01/28 14:17:38;;;;;;;13.83;5.50;;;6.20;74.90;;;;;;5089847;28;20498;-72
2022/01/28 14:20:04;;;;;;;10.90;5.77;;;6.10;75.10;;;;;;5091091;28;20421;-71
2022/01/28 14:22:29;;;;;;;14.10;6.20;;;6.10;75.10;;;;;;5090952;28;20432;-71
2022/01/28 14:24:57;;;;;;;8.30;4.97;;;6.10;75.50;;;;;;5091235;28;20409;-71
2022/01/28 14:29:55;;;;;;;10.70;6.23;;;6.20;75.20;;;;;;5091626;28;20414;-71
2022/01/28 14:32:23;;;;;;;7.97;5.43;;;6.30;75.20;;;;;;5090895;28;20521;-72
2022/01/28 14:34:52;;;;;;;9.60;5.00;;;6.40;73.90;;;;;;5092120;28;20828;-70